Time;durP1;ratioP1;P1;durP2;ratioP2;P2;SDS_P1;SDS_P2;PMS_P1;PMS_P2;Temp;Humidity;BMP_temperature;BMP_pressure;BME280_temperature;BME280_humidity;BME280_pressure;Samples;Min_cycle;Max_cycle;Signal;HPM_P1;HPM_P2
2022/08/10 00:01:38;;;;;;;2.13;1.90;;;;;;;;;;4982729;28;20201;-70
2022/08/10 00:04:05;;;;;;;2.00;1.90;;;;;;;;;;4979044;28;20213;-70
2022/08/10 00:06:32;;;;;;;2.20;1.80;;;;;;;;;;4980813;28;20225;-70
2022/08/10 00:09:01;;;;;;;3.08;2.00;;;;;;;;;;4979039;28;20234;-70
2022/08/10 00:11:28;;;;;;;1.63;1.63;;;;;;;;;;4980464;28;20209;-69
2022/08/10 00:13:55;;;;;;;2.67;1.90;;;;;;;;;;4980718;28;20583;-69
2022/08/10 00:16:22;;;;;;;2.05;1.95;;;;;;;;;;4975756;28;20210;-70
2022/08/10 00:18:49;;;;;;;5.65;1.80;;;;;;;;;;4981992;28;20626;-69
2022/08/10 00:21:16;;;;;;;1.90;1.90;;;;;;;;;;4979784;28;20218;-69
2022/08/10 00:23:43;;;;;;;2.92;2.08;;;;;;;;;;4976601;28;20211;-71
2022/08/10 00:26:12;;;;;;;2.05;1.95;;;;;;;;;;4977018;28;20217;-69
2022/08/10 00:28:39;;;;;;;7.47;2.72;;;;;;;;;;4977550;28;20206;-69
2022/08/10 00:31:06;;;;;;;2.75;1.95;;;;;;;;;;4974825;28;20225;-69
2022/08/10 00:33:33;;;;;;;5.85;2.10;;;;;;;;;;4975887;28;20205;-69
2022/08/10 00:36:00;;;;;;;1.90;1.90;;;;;;;;;;4979033;28;20689;-69
2022/08/10 00:38:27;;;;;;;5.43;2.05;;;;;;;;;;4979102;28;20295;-69
2022/08/10 00:40:54;;;;;;;2.00;1.90;;;;;;;;;;4973795;28;20256;-70
2022/08/10 00:43:24;;;;;;;2.90;2.22;;;;;;;;;;4979772;28;20201;-70
2022/08/10 00:45:51;;;;;;;1.92;1.83;;;;;;;;;;4978738;28;20209;-69
2022/08/10 00:48:18;;;;;;;3.08;2.20;;;;;;;;;;4976329;28;20210;-69
2022/08/10 00:50:45;;;;;;;3.08;2.00;;;;;;;;;;4972066;28;20257;-69
2022/08/10 00:53:12;;;;;;;2.63;2.10;;;;;;;;;;4971054;28;20241;-70
2022/08/10 00:55:39;;;;;;;2.78;1.98;;;;;;;;;;4983032;28;20202;-69
2022/08/10 00:58:06;;;;;;;1.95;1.92;;;;;;;;;;4971967;28;20705;-69
2022/08/10 01:00:35;;;;;;;1.98;1.88;;;;;;;;;;4971776;28;20198;-68
2022/08/10 01:03:02;;;;;;;1.92;1.92;;;;;;;;;;4971036;28;20214;-69
2022/08/10 01:05:29;;;;;;;2.38;2.28;;;;;;;;;;4972087;28;20222;-68
2022/08/10 01:08:14;;;;;;;4.75;2.15;;;;;;;;;;4971699;28;20210;-69
2022/08/10 01:10:47;;;;;;;4.00;1.98;;;;;;;;;;4960290;28;20261;-69
2022/08/10 01:13:18;;;;;;;2.47;1.90;;;;;;;;;;4969487;28;20218;-68
2022/08/10 01:15:52;;;;;;;2.03;1.92;;;;;;;;;;4970871;28;20222;-69
2022/08/10 01:18:24;;;;;;;2.17;2.00;;;;;;;;;;4971103;28;20740;-69
2022/08/10 01:20:59;;;;;;;2.00;1.80;;;;;;;;;;4971648;28;20612;-69
2022/08/10 01:23:45;;;;;;;4.28;2.00;;;;;;;;;;4970712;28;20209;-69
2022/08/10 01:26:27;;;;;;;3.10;1.98;;;;;;;;;;4967240;28;20218;-68
2022/08/10 01:28:58;;;;;;;2.00;1.90;;;;;;;;;;4971835;28;20214;-69
2022/08/10 01:31:28;;;;;;;2.28;2.17;;;;;;;;;;4969607;28;20226;-69
2022/08/10 01:33:56;;;;;;;2.10;2.00;;;;;;;;;;4970909;28;20225;-69
2022/08/10 01:36:26;;;;;;;2.13;2.03;;;;;;;;;;4969918;28;20240;-69
2022/08/10 01:38:54;;;;;;;2.10;2.00;;;;;;;;;;4972108;28;20250;-69
2022/08/10 01:41:23;;;;;;;4.18;1.98;;;;;;;;;;4970306;28;20688;-68
2022/08/10 01:43:52;;;;;;;3.42;2.13;;;;;;;;;;4970484;28;20669;-69
2022/08/10 01:46:22;;;;;;;3.58;2.90;;;;;;;;;;4970452;28;20217;-68
2022/08/10 01:48:51;;;;;;;4.15;2.10;;;;;;;;;;4969510;28;20300;-69
2022/08/10 01:51:22;;;;;;;1.60;1.60;;;;;;;;;;4969225;28;20250;-69
2022/08/10 01:53:51;;;;;;;2.00;2.00;;;;;;;;;;4965293;28;20202;-69
2022/08/10 01:56:20;;;;;;;2.50;2.40;;;;;;;;;;4970960;28;20206;-69
2022/08/10 01:58:49;;;;;;;2.22;1.98;;;;;;;;;;4965030;28;20215;-69
2022/08/10 02:01:18;;;;;;;3.00;2.25;;;;;;;;;;4962472;28;20237;-69
2022/08/10 02:03:47;;;;;;;2.30;2.05;;;;;;;;;;4968653;28;20218;-69
2022/08/10 02:06:16;;;;;;;2.38;2.28;;;;;;;;;;4968376;28;20225;-69
2022/08/10 02:08:44;;;;;;;2.20;2.00;;;;;;;;;;4968433;28;20213;-70
2022/08/10 02:11:12;;;;;;;2.38;2.05;;;;;;;;;;4968216;28;20245;-69
2022/08/10 02:13:39;;;;;;;2.35;2.20;;;;;;;;;;4969002;28;20218;-69
2022/08/10 02:16:07;;;;;;;2.30;2.10;;;;;;;;;;4967797;28;20304;-69
2022/08/10 02:18:34;;;;;;;3.22;2.28;;;;;;;;;;4969186;28;20214;-69
2022/08/10 02:21:03;;;;;;;1.80;1.80;;;;;;;;;;4968813;28;20203;-68
2022/08/10 02:23:32;;;;;;;4.82;2.00;;;;;;;;;;4968796;28;20210;-69
2022/08/10 02:26:01;;;;;;;2.15;2.05;;;;;;;;;;4968787;28;20203;-69
2022/08/10 02:28:29;;;;;;;2.40;2.30;;;;;;;;;;4968786;28;20205;-69
2022/08/10 02:30:58;;;;;;;3.20;1.83;;;;;;;;;;4967349;28;20586;-68
2022/08/10 02:33:26;;;;;;;2.50;2.30;;;;;;;;;;4969240;28;20242;-69
2022/08/10 02:35:54;;;;;;;2.08;1.90;;;;;;;;;;4968557;28;20210;-68
2022/08/10 02:38:23;;;;;;;4.82;2.17;;;;;;;;;;4968295;28;20210;-69
2022/08/10 02:40:56;;;;;;;4.38;2.25;;;;;;;;;;4967892;28;20273;-69
2022/08/10 02:43:27;;;;;;;14.63;2.58;;;;;;;;;;4967783;28;20206;-69
2022/08/10 02:45:57;;;;;;;1.95;1.85;;;;;;;;;;4968947;28;21550;-70
2022/08/10 02:48:26;;;;;;;2.00;1.90;;;;;;;;;;4967654;28;20707;-69
2022/08/10 02:50:57;;;;;;;3.17;2.80;;;;;;;;;;4968494;28;20639;-69
2022/08/10 02:53:32;;;;;;;2.10;2.05;;;;;;;;;;4965803;28;20839;-70
2022/08/10 02:56:04;;;;;;;2.58;1.98;;;;;;;;;;4968708;28;20210;-69
2022/08/10 02:58:34;;;;;;;5.65;3.17;;;;;;;;;;4966543;28;20334;-69
2022/08/10 03:01:04;;;;;;;2.08;2.08;;;;;;;;;;4967829;28;20226;-69
2022/08/10 03:03:33;;;;;;;2.60;2.40;;;;;;;;;;4968697;28;20209;-69
2022/08/10 03:06:01;;;;;;;3.13;2.13;;;;;;;;;;4970456;28;20221;-70
2022/08/10 03:08:31;;;;;;;2.65;2.45;;;;;;;;;;4970065;28;20793;-69
2022/08/10 03:11:00;;;;;;;4.82;2.40;;;;;;;;;;4972445;28;20902;-69
2022/08/10 03:13:29;;;;;;;2.28;2.08;;;;;;;;;;4972231;28;20265;-69
2022/08/10 03:15:56;;;;;;;3.35;2.33;;;;;;;;;;4972006;28;20221;-69
2022/08/10 03:18:24;;;;;;;3.30;2.92;;;;;;;;;;4972263;28;20222;-68
2022/08/10 03:20:52;;;;;;;4.68;1.90;;;;;;;;;;4972663;28;20210;-69
2022/08/10 03:23:20;;;;;;;2.20;2.15;;;;;;;;;;4971770;28;20702;-69
2022/08/10 03:25:48;;;;;;;2.67;2.42;;;;;;;;;;4972403;28;20214;-69
2022/08/10 03:28:15;;;;;;;2.50;2.38;;;;;;;;;;4970328;28;20210;-69
2022/08/10 03:30:44;;;;;;;5.25;2.42;;;;;;;;;;4972083;28;20694;-69
2022/08/10 03:33:12;;;;;;;2.63;2.40;;;;;;;;;;4971990;28;20214;-69
2022/08/10 03:35:39;;;;;;;3.65;2.72;;;;;;;;;;4971561;28;20957;-69
2022/08/10 03:38:06;;;;;;;2.17;2.00;;;;;;;;;;4969570;28;20649;-69
2022/08/10 03:40:36;;;;;;;3.97;2.22;;;;;;;;;;4971148;28;20249;-69
2022/08/10 03:43:03;;;;;;;2.25;2.15;;;;;;;;;;4971299;28;20261;-69
2022/08/10 03:45:31;;;;;;;2.63;2.42;;;;;;;;;;4970157;28;20222;-69
2022/08/10 03:48:00;;;;;;;3.97;2.40;;;;;;;;;;4971823;28;20206;-69
2022/08/10 03:50:28;;;;;;;2.50;2.30;;;;;;;;;;4971210;28;20246;-69
2022/08/10 03:52:56;;;;;;;2.38;2.22;;;;;;;;;;4971819;28;20218;-69
2022/08/10 03:55:23;;;;;;;2.35;2.35;;;;;;;;;;4970892;28;20276;-69
2022/08/10 03:57:50;;;;;;;2.47;2.40;;;;;;;;;;4971728;28;20300;-69
2022/08/10 04:00:18;;;;;;;2.47;2.38;;;;;;;;;;4971568;28;20693;-70
2022/08/10 04:02:45;;;;;;;2.70;2.60;;;;;;;;;;4971369;28;20308;-70
2022/08/10 04:05:15;;;;;;;2.45;2.30;;;;;;;;;;4971550;28;20573;-69
2022/08/10 04:07:42;;;;;;;2.47;2.30;;;;;;;;;;4970584;28;20322;-69
2022/08/10 04:10:10;;;;;;;4.25;3.10;;;;;;;;;;4971619;28;20211;-69
2022/08/10 04:12:37;;;;;;;3.25;2.65;;;;;;;;;;4971229;28;20234;-69
2022/08/10 04:15:04;;;;;;;3.58;2.50;;;;;;;;;;4971190;28;20198;-69
2022/08/10 04:17:31;;;;;;;1.90;1.90;;;;;;;;;;4970590;28;20213;-68
2022/08/10 04:19:59;;;;;;;2.50;2.20;;;;;;;;;;4970802;28;20216;-69
2022/08/10 04:22:28;;;;;;;2.38;2.28;;;;;;;;;;4971625;28;20253;-69
2022/08/10 04:24:57;;;;;;;2.67;2.58;;;;;;;;;;4971165;28;20561;-69
2022/08/10 04:27:24;;;;;;;2.50;2.40;;;;;;;;;;4969116;28;20836;-69
2022/08/10 04:29:54;;;;;;;2.47;2.35;;;;;;;;;;4971196;28;20269;-69
2022/08/10 04:32:22;;;;;;;3.80;2.22;;;;;;;;;;4971037;28;20241;-69
2022/08/10 04:34:49;;;;;;;2.60;2.33;;;;;;;;;;4970692;28;20207;-70
2022/08/10 04:37:18;;;;;;;2.78;2.58;;;;;;;;;;4970592;28;20221;-69
2022/08/10 04:39:47;;;;;;;5.95;2.58;;;;;;;;;;4971195;28;20214;-69
2022/08/10 04:42:14;;;;;;;2.45;2.30;;;;;;;;;;4970378;28;20195;-69
2022/08/10 04:44:42;;;;;;;2.60;2.42;;;;;;;;;;4971198;28;20298;-68
2022/08/10 04:47:09;;;;;;;3.83;2.45;;;;;;;;;;4970267;28;20669;-69
2022/08/10 04:49:36;;;;;;;3.58;2.40;;;;;;;;;;4969494;28;20254;-69
2022/08/10 04:52:04;;;;;;;2.58;2.47;;;;;;;;;;4971123;28;20324;-69
2022/08/10 04:54:32;;;;;;;2.50;2.40;;;;;;;;;;4970663;28;20216;-70
2022/08/10 04:57:01;;;;;;;3.60;2.30;;;;;;;;;;4970512;28;20209;-69
2022/08/10 04:59:28;;;;;;;4.10;2.63;;;;;;;;;;4970970;28;20202;-70
2022/08/10 05:01:55;;;;;;;3.92;2.47;;;;;;;;;;4966127;28;20203;-69
2022/08/10 05:04:22;;;;;;;5.90;2.30;;;;;;;;;;4968169;28;20210;-69
2022/08/10 05:06:49;;;;;;;2.60;2.50;;;;;;;;;;4970252;28;20222;-66
2022/08/10 05:09:16;;;;;;;2.50;2.40;;;;;;;;;;4970839;28;20213;-66
2022/08/10 05:11:43;;;;;;;2.67;2.50;;;;;;;;;;4967088;28;20245;-67
2022/08/10 05:14:11;;;;;;;2.15;2.15;;;;;;;;;;4967373;28;20308;-69
2022/08/10 05:16:38;;;;;;;2.20;2.13;;;;;;;;;;4970129;28;20308;-68
2022/08/10 05:19:05;;;;;;;2.55;2.20;;;;;;;;;;4970376;28;20214;-67
2022/08/10 05:21:32;;;;;;;2.80;2.60;;;;;;;;;;4969813;28;20202;-68
2022/08/10 05:24:03;;;;;;;2.78;2.58;;;;;;;;;;4973748;28;20893;-68
2022/08/10 05:26:30;;;;;;;2.90;2.75;;;;;;;;;;4972240;28;20202;-67
2022/08/10 05:28:57;;;;;;;2.67;2.50;;;;;;;;;;4973178;28;20202;-67
2022/08/10 05:31:26;;;;;;;2.47;2.38;;;;;;;;;;4968753;28;20273;-67
2022/08/10 05:33:53;;;;;;;2.55;2.38;;;;;;;;;;4969971;28;20218;-67
2022/08/10 05:36:20;;;;;;;7.07;2.63;;;;;;;;;;4969408;28;20221;-67
2022/08/10 05:38:48;;;;;;;2.42;2.33;;;;;;;;;;4968229;28;20230;-67
2022/08/10 05:41:16;;;;;;;2.28;2.17;;;;;;;;;;4970042;28;20273;-67
2022/08/10 05:43:43;;;;;;;2.75;2.55;;;;;;;;;;4966504;28;20273;-67
2022/08/10 05:46:10;;;;;;;3.65;2.67;;;;;;;;;;4970180;28;20207;-67
2022/08/10 05:48:39;;;;;;;2.70;2.60;;;;;;;;;;4969657;28;20238;-68
2022/08/10 05:51:07;;;;;;;2.47;2.28;;;;;;;;;;4969613;28;20238;-67
2022/08/10 05:53:35;;;;;;;3.00;2.80;;;;;;;;;;4970701;28;20234;-67
2022/08/10 05:56:03;;;;;;;3.05;2.10;;;;;;;;;;4969834;28;20213;-66
2022/08/10 05:58:30;;;;;;;2.38;2.28;;;;;;;;;;4968883;28;20221;-67
2022/08/10 06:00:58;;;;;;;2.60;2.50;;;;;;;;;;4970008;28;20214;-67
2022/08/10 06:03:46;;;;;;;2.38;2.20;;;;;;;;;;4967659;28;20203;-66
2022/08/10 06:06:15;;;;;;;2.70;2.50;;;;;;;;;;4968938;28;20217;-66
2022/08/10 06:08:46;;;;;;;2.65;2.47;;;;;;;;;;4969860;28;20199;-66
2022/08/10 06:11:14;;;;;;;2.70;2.58;;;;;;;;;;4969209;28;20218;-67
2022/08/10 06:16:29;;;;;;;3.65;2.85;;;;;;;;;;4969523;28;20221;-67
2022/08/10 06:18:56;;;;;;;2.00;2.00;;;;;;;;;;4967620;28;20216;-68
2022/08/10 06:21:25;;;;;;;4.88;2.45;;;;;;;;;;4966507;28;20206;-68
2022/08/10 06:23:53;;;;;;;2.42;2.42;;;;;;;;;;4966739;28;20210;-67
2022/08/10 06:26:20;;;;;;;2.42;2.22;;;;;;;;;;4967577;28;20697;-67
2022/08/10 06:28:49;;;;;;;2.20;2.10;;;;;;;;;;4969021;28;20230;-67
2022/08/10 06:31:18;;;;;;;5.47;2.40;;;;;;;;;;4969709;28;20214;-67
2022/08/10 06:33:46;;;;;;;4.35;2.30;;;;;;;;;;4969463;28;20944;-67
2022/08/10 06:36:13;;;;;;;3.22;2.38;;;;;;;;;;4965260;28;20210;-66
2022/08/10 06:38:42;;;;;;;5.05;2.58;;;;;;;;;;4967373;28;20724;-67
2022/08/10 06:41:13;;;;;;;2.65;1.88;;;;;;;;;;4963756;28;20265;-67
2022/08/10 06:43:42;;;;;;;2.00;2.00;;;;;;;;;;4970323;28;20217;-67
2022/08/10 06:46:12;;;;;;;5.13;2.10;;;;;;;;;;4967946;28;20217;-67
2022/08/10 06:48:46;;;;;;;2.40;2.13;;;;;;;;;;4968819;28;20242;-67
2022/08/10 06:51:14;;;;;;;2.88;2.30;;;;;;;;;;4968476;28;20315;-66
2022/08/10 06:53:46;;;;;;;2.20;1.98;;;;;;;;;;4968760;28;20222;-67
2022/08/10 06:56:15;;;;;;;2.47;2.20;;;;;;;;;;4966485;28;20210;-66
2022/08/10 06:58:45;;;;;;;2.20;2.10;;;;;;;;;;4968772;28;20631;-63
2022/08/10 07:01:14;;;;;;;3.78;1.70;;;;;;;;;;4968338;28;20300;-63
2022/08/10 07:03:44;;;;;;;2.47;2.20;;;;;;;;;;4966475;28;20653;-63
2022/08/10 07:06:12;;;;;;;5.03;2.20;;;;;;;;;;4967720;28;20203;-63
2022/08/10 07:08:40;;;;;;;2.30;2.20;;;;;;;;;;4967675;28;20320;-63
2022/08/10 07:11:09;;;;;;;2.30;2.20;;;;;;;;;;4968871;28;20260;-62
2022/08/10 07:13:38;;;;;;;4.57;1.90;;;;;;;;;;4963993;28;20269;-63
2022/08/10 07:16:06;;;;;;;6.07;2.40;;;;;;;;;;4970071;28;20288;-63
2022/08/10 07:18:34;;;;;;;2.25;2.25;;;;;;;;;;4971646;28;20207;-63
2022/08/10 07:21:01;;;;;;;1.75;1.65;;;;;;;;;;4969185;28;20216;-65
2022/08/10 07:23:28;;;;;;;3.63;1.88;;;;;;;;;;4968203;28;20222;-64
2022/08/10 07:25:56;;;;;;;1.92;1.83;;;;;;;;;;4967281;28;20755;-64
2022/08/10 07:28:25;;;;;;;5.20;1.92;;;;;;;;;;4968481;28;20212;-64
2022/08/10 07:30:53;;;;;;;4.75;2.35;;;;;;;;;;4966615;28;20218;-64
2022/08/10 07:33:21;;;;;;;5.97;1.98;;;;;;;;;;4964627;28;20230;-63
2022/08/10 07:35:49;;;;;;;2.65;2.00;;;;;;;;;;4968192;28;20213;-63
2022/08/10 07:38:17;;;;;;;2.65;1.98;;;;;;;;;;4965355;28;20580;-64
2022/08/10 07:40:45;;;;;;;5.07;2.15;;;;;;;;;;4968723;28;20301;-64
2022/08/10 07:43:13;;;;;;;1.77;1.67;;;;;;;;;;4967508;28;20265;-64
2022/08/10 07:45:41;;;;;;;2.45;2.17;;;;;;;;;;4967854;28;20596;-64
2022/08/10 07:48:10;;;;;;;3.97;2.22;;;;;;;;;;4963801;28;20277;-65
2022/08/10 07:50:39;;;;;;;5.70;1.90;;;;;;;;;;4968039;28;20238;-65
2022/08/10 07:53:09;;;;;;;1.90;1.67;;;;;;;;;;4969719;28;20230;-64
2022/08/10 07:55:37;;;;;;;5.05;1.80;;;;;;;;;;4972900;28;20222;-65
2022/08/10 07:58:05;;;;;;;1.92;1.83;;;;;;;;;;4970478;28;20207;-62
2022/08/10 08:00:32;;;;;;;4.05;1.88;;;;;;;;;;4970098;28;20210;-64
2022/08/10 08:03:02;;;;;;;1.88;1.70;;;;;;;;;;4970425;28;20199;-65
2022/08/10 08:05:32;;;;;;;1.90;1.80;;;;;;;;;;4968635;28;20300;-63
2022/08/10 08:08:00;;;;;;;1.60;1.60;;;;;;;;;;4967817;28;20206;-62
2022/08/10 08:10:28;;;;;;;2.05;2.03;;;;;;;;;;4970917;28;20736;-63
2022/08/10 08:12:56;;;;;;;3.03;1.75;;;;;;;;;;4970586;28;20241;-66
2022/08/10 08:15:24;;;;;;;1.90;1.80;;;;;;;;;;4970542;28;20520;-65
2022/08/10 08:17:52;;;;;;;1.48;1.48;;;;;;;;;;4970605;28;20218;-63
2022/08/10 08:20:21;;;;;;;3.42;1.80;;;;;;;;;;4971251;28;20219;-63
2022/08/10 08:22:49;;;;;;;1.77;1.73;;;;;;;;;;4970137;28;20213;-63
2022/08/10 08:25:18;;;;;;;2.10;2.00;;;;;;;;;;4968255;28;20210;-63
2022/08/10 08:27:45;;;;;;;4.43;1.80;;;;;;;;;;4971302;28;21032;-63
2022/08/10 08:30:13;;;;;;;3.15;1.52;;;;;;;;;;4971008;28;20236;-66
2022/08/10 08:32:42;;;;;;;1.63;1.63;;;;;;;;;;4969218;28;20233;-65
2022/08/10 08:35:10;;;;;;;1.70;1.65;;;;;;;;;;4969430;28;20216;-66
2022/08/10 08:37:41;;;;;;;1.63;1.63;;;;;;;;;;4969574;28;20202;-66
2022/08/10 08:40:11;;;;;;;1.70;1.63;;;;;;;;;;4969177;28;20202;-66
2022/08/10 08:42:53;;;;;;;2.08;1.80;;;;;;;;;;4969925;28;20206;-66
2022/08/10 08:45:24;;;;;;;1.80;1.63;;;;;;;;;;4968887;28;20245;-67
2022/08/10 08:48:04;;;;;;;1.85;1.75;;;;;;;;;;4970831;28;20664;-66
2022/08/10 08:50:34;;;;;;;1.90;1.80;;;;;;;;;;4966188;28;20234;-66
2022/08/10 08:53:11;;;;;;;2.05;1.95;;;;;;;;;;4971416;28;20249;-67
2022/08/10 08:55:44;;;;;;;1.80;1.70;;;;;;;;;;4971392;28;20206;-67
2022/08/10 08:58:21;;;;;;;4.28;2.17;;;;;;;;;;4968793;28;20685;-67
2022/08/10 09:00:51;;;;;;;1.73;1.73;;;;;;;;;;4969326;28;20214;-66
2022/08/10 09:03:34;;;;;;;1.85;1.75;;;;;;;;;;4969982;28;20209;-65
2022/08/10 09:06:22;;;;;;;2.05;1.60;;;;;;;;;;4968961;28;20229;-66
2022/08/10 09:09:23;;;;;;;1.63;1.63;;;;;;;;;;4965297;28;20218;-68
2022/08/10 09:12:01;;;;;;;1.63;1.38;;;;;;;;;;4909215;29;20213;-69
2022/08/10 09:14:34;;;;;;;2.00;1.90;;;;;;;;;;4911495;29;20212;-65
2022/08/10 09:17:04;;;;;;;1.77;1.50;;;;;;;;;;4944905;28;20301;-66
2022/08/10 09:19:33;;;;;;;1.40;1.40;;;;;;;;;;4968892;28;20221;-65
2022/08/10 09:22:02;;;;;;;1.90;1.50;;;;;;;;;;4974982;28;20217;-65
2022/08/10 09:24:35;;;;;;;1.38;1.27;;;;;;;;;;4970366;28;20582;-65
2022/08/10 09:27:08;;;;;;;1.60;1.60;;;;;;;;;;4970633;28;20704;-67
2022/08/10 09:29:41;;;;;;;2.08;1.98;;;;;;;;;;4971049;28;20213;-67
2022/08/10 09:32:09;;;;;;;2.47;1.58;;;;;;;;;;4971235;28;20669;-70
2022/08/10 09:34:42;;;;;;;1.80;1.40;;;;;;;;;;4970115;28;20585;-65
2022/08/10 09:37:12;;;;;;;2.20;1.45;;;;;;;;;;4968783;28;20213;-66
2022/08/10 09:39:43;;;;;;;1.70;1.60;;;;;;;;;;4970282;28;20221;-67
2022/08/10 09:42:14;;;;;;;1.90;1.58;;;;;;;;;;4955334;28;20681;-67
2022/08/10 09:44:47;;;;;;;1.60;1.52;;;;;;;;;;4970556;28;20210;-66
2022/08/10 09:47:20;;;;;;;1.52;1.52;;;;;;;;;;4968937;28;20210;-67
2022/08/10 09:49:54;;;;;;;1.42;1.30;;;;;;;;;;4970204;28;20246;-67
2022/08/10 09:52:25;;;;;;;7.93;1.92;;;;;;;;;;4970296;28;20238;-66
2022/08/10 09:55:00;;;;;;;1.52;1.42;;;;;;;;;;4969872;28;20653;-67
2022/08/10 09:57:34;;;;;;;1.38;1.30;;;;;;;;;;4966962;28;20210;-68
2022/08/10 10:00:09;;;;;;;1.92;1.58;;;;;;;;;;4970901;28;20205;-66
2022/08/10 10:02:42;;;;;;;1.70;1.70;;;;;;;;;;4970594;28;20687;-67
2022/08/10 10:05:14;;;;;;;2.15;1.70;;;;;;;;;;4973696;28;20579;-67
2022/08/10 10:07:46;;;;;;;1.38;1.38;;;;;;;;;;4960866;28;20206;-65
2022/08/10 10:10:14;;;;;;;1.30;1.30;;;;;;;;;;4969875;28;20210;-66
2022/08/10 10:12:45;;;;;;;2.38;1.30;;;;;;;;;;4966988;28;20238;-67
2022/08/10 10:15:22;;;;;;;1.58;1.48;;;;;;;;;;4966339;28;20213;-67
2022/08/10 10:17:58;;;;;;;1.40;1.27;;;;;;;;;;4971306;28;20213;-67
2022/08/10 10:20:29;;;;;;;1.40;1.30;;;;;;;;;;4968737;28;20233;-66
2022/08/10 10:22:59;;;;;;;1.50;1.48;;;;;;;;;;4970516;28;20210;-67
2022/08/10 10:25:29;;;;;;;1.38;1.38;;;;;;;;;;4970565;28;20207;-67
2022/08/10 10:28:06;;;;;;;1.08;1.08;;;;;;;;;;4970636;28;20210;-67
2022/08/10 10:30:46;;;;;;;1.83;1.40;;;;;;;;;;4970089;28;20300;-67
2022/08/10 10:33:14;;;;;;;3.03;1.40;;;;;;;;;;4966843;28;20230;-68
2022/08/10 10:35:44;;;;;;;1.30;1.23;;;;;;;;;;4967010;28;20222;-67
2022/08/10 10:38:13;;;;;;;1.10;1.10;;;;;;;;;;4970291;28;20222;-67
2022/08/10 10:40:42;;;;;;;3.10;1.38;;;;;;;;;;4970265;28;20214;-68
2022/08/10 10:43:20;;;;;;;1.20;1.15;;;;;;;;;;4969491;28;20218;-68
2022/08/10 10:45:52;;;;;;;1.52;1.42;;;;;;;;;;4969783;28;20213;-67
2022/08/10 10:48:22;;;;;;;1.20;1.20;;;;;;;;;;4968408;28;20217;-68
2022/08/10 10:50:55;;;;;;;1.95;1.40;;;;;;;;;;4969058;28;20238;-66
2022/08/10 10:53:25;;;;;;;1.33;1.33;;;;;;;;;;4953567;28;20958;-67
2022/08/10 10:55:57;;;;;;;1.13;1.13;;;;;;;;;;4969568;28;20668;-66
2022/08/10 10:58:27;;;;;;;1.88;1.30;;;;;;;;;;4976150;28;20586;-67
2022/08/10 11:00:59;;;;;;;1.17;1.17;;;;;;;;;;4972629;28;20214;-66
2022/08/10 11:03:36;;;;;;;1.48;1.38;;;;;;;;;;4970268;28;20210;-67
2022/08/10 11:06:10;;;;;;;0.85;0.85;;;;;;;;;;4970088;28;20206;-66
2022/08/10 11:08:38;;;;;;;1.20;1.20;;;;;;;;;;4978856;28;20217;-67
2022/08/10 11:11:08;;;;;;;1.33;1.30;;;;;;;;;;4969700;28;20216;-67
2022/08/10 11:13:38;;;;;;;1.55;1.15;;;;;;;;;;4968579;28;20696;-68
2022/08/10 11:16:07;;;;;;;1.15;1.15;;;;;;;;;;4969058;28;20240;-64
2022/08/10 11:18:39;;;;;;;1.58;1.08;;;;;;;;;;4970352;28;20369;-66
2022/08/10 11:21:14;;;;;;;1.40;1.30;;;;;;;;;;4969612;28;20284;-65
2022/08/10 11:23:44;;;;;;;1.05;1.05;;;;;;;;;;4968403;28;20256;-66
2022/08/10 11:26:13;;;;;;;1.27;1.27;;;;;;;;;;4968768;28;20641;-66
2022/08/10 11:28:45;;;;;;;1.80;1.10;;;;;;;;;;4967790;28;20237;-65
2022/08/10 11:31:17;;;;;;;1.30;1.30;;;;;;;;;;4972677;28;20202;-66
2022/08/10 11:33:57;;;;;;;1.50;1.50;;;;;;;;;;4972864;28;20301;-66
2022/08/10 11:36:29;;;;;;;2.30;1.50;;;;;;;;;;4971342;28;20206;-66
2022/08/10 11:39:00;;;;;;;1.83;1.35;;;;;;;;;;4972590;28;20210;-64
2022/08/10 11:41:30;;;;;;;2.25;1.17;;;;;;;;;;4972074;28;20807;-64
2022/08/10 11:44:05;;;;;;;1.35;1.27;;;;;;;;;;4971514;28;20207;-64
2022/08/10 11:46:34;;;;;;;1.52;1.52;;;;;;;;;;4971421;28;20213;-64
2022/08/10 11:49:04;;;;;;;1.67;1.20;;;;;;;;;;4971337;28;20250;-65
2022/08/10 11:51:35;;;;;;;1.55;1.45;;;;;;;;;;4972673;28;20301;-66
2022/08/10 11:54:05;;;;;;;3.22;1.70;;;;;;;;;;4972360;28;20308;-66
2022/08/10 11:56:38;;;;;;;1.30;1.30;;;;;;;;;;4972750;28;20211;-65
2022/08/10 12:01:52;;;;;;;1.65;1.27;;;;;;;;;;4973335;28;20293;-65
2022/08/10 12:04:20;;;;;;;2.15;1.25;;;;;;;;;;4972960;28;20199;-66
2022/08/10 12:06:47;;;;;;;2.17;1.20;;;;;;;;;;4972238;28;20203;-66
2022/08/10 12:09:15;;;;;;;1.20;1.10;;;;;;;;;;4972228;28;20213;-65
2022/08/10 12:11:42;;;;;;;3.72;1.50;;;;;;;;;;4972359;28;20264;-65
2022/08/10 12:14:14;;;;;;;1.20;1.20;;;;;;;;;;4972207;28;20234;-65
2022/08/10 12:16:43;;;;;;;1.02;1.00;;;;;;;;;;4972477;28;20214;-67
2022/08/10 12:19:11;;;;;;;1.30;1.30;;;;;;;;;;4971397;28;20218;-65
2022/08/10 12:21:41;;;;;;;4.07;1.52;;;;;;;;;;4972410;28;20648;-65
2022/08/10 12:24:10;;;;;;;1.30;1.30;;;;;;;;;;4972684;28;20210;-66
2022/08/10 12:26:40;;;;;;;1.65;1.40;;;;;;;;;;4972426;28;20264;-69
2022/08/10 12:29:11;;;;;;;2.30;1.35;;;;;;;;;;4970929;28;20257;-69
2022/08/10 12:31:41;;;;;;;1.15;1.15;;;;;;;;;;4972394;28;20333;-70
2022/08/10 12:34:17;;;;;;;1.40;1.40;;;;;;;;;;4971189;28;20226;-69
2022/08/10 12:36:47;;;;;;;3.83;1.30;;;;;;;;;;4971352;28;20202;-69
2022/08/10 12:39:16;;;;;;;3.10;1.33;;;;;;;;;;4964741;28;20206;-69
2022/08/10 12:41:45;;;;;;;1.33;1.25;;;;;;;;;;4969786;28;20198;-69
2022/08/10 12:44:15;;;;;;;3.47;1.23;;;;;;;;;;4970069;28;20215;-69
2022/08/10 12:46:50;;;;;;;2.88;1.40;;;;;;;;;;4965709;28;20214;-70
2022/08/10 12:49:20;;;;;;;1.40;1.40;;;;;;;;;;4970061;28;20324;-70
2022/08/10 12:51:51;;;;;;;2.00;1.30;;;;;;;;;;4969150;28;20214;-69
2022/08/10 12:54:19;;;;;;;1.10;1.10;;;;;;;;;;4972033;28;20226;-69
2022/08/10 12:56:49;;;;;;;1.35;1.35;;;;;;;;;;4971214;28;20767;-68
2022/08/10 12:59:17;;;;;;;1.80;1.30;;;;;;;;;;4971746;28;20218;-68
2022/08/10 13:01:46;;;;;;;1.17;1.15;;;;;;;;;;4969961;28;20221;-69
2022/08/10 13:04:14;;;;;;;2.05;1.30;;;;;;;;;;4971807;28;20261;-69
2022/08/10 13:06:44;;;;;;;1.58;1.20;;;;;;;;;;4968998;28;20214;-69
2022/08/10 13:09:12;;;;;;;5.53;1.50;;;;;;;;;;4962254;28;20229;-69
2022/08/10 13:11:41;;;;;;;2.33;1.17;;;;;;;;;;4969834;28;20207;-68
2022/08/10 13:14:11;;;;;;;1.60;1.10;;;;;;;;;;4969861;28;20382;-66
2022/08/10 13:16:38;;;;;;;1.75;1.30;;;;;;;;;;4970910;28;20202;-66
2022/08/10 13:19:08;;;;;;;2.05;1.50;;;;;;;;;;4970449;28;20249;-66
2022/08/10 13:21:36;;;;;;;1.27;1.27;;;;;;;;;;4970541;28;20214;-67
2022/08/10 13:24:05;;;;;;;1.60;1.35;;;;;;;;;;4970703;28;20216;-66
2022/08/10 13:26:35;;;;;;;2.15;1.35;;;;;;;;;;4970615;28;20611;-66
2022/08/10 13:29:03;;;;;;;3.15;1.63;;;;;;;;;;4970073;28;20552;-66
2022/08/10 13:31:31;;;;;;;2.25;1.45;;;;;;;;;;4969357;28;20214;-66
2022/08/10 13:33:59;;;;;;;2.55;1.40;;;;;;;;;;4969940;28;20713;-66
2022/08/10 13:36:31;;;;;;;1.50;1.50;;;;;;;;;;4969838;28;20261;-66
2022/08/10 13:38:59;;;;;;;3.13;1.45;;;;;;;;;;4969524;28;20649;-66
2022/08/10 13:41:27;;;;;;;1.35;1.35;;;;;;;;;;4969696;28;20206;-66
2022/08/10 13:43:56;;;;;;;1.30;1.30;;;;;;;;;;4970281;28;20207;-66
2022/08/10 13:46:23;;;;;;;2.05;1.33;;;;;;;;;;4969675;28;20214;-66
2022/08/10 13:48:52;;;;;;;1.45;1.20;;;;;;;;;;4969989;28;20639;-66
2022/08/10 13:51:21;;;;;;;1.30;1.30;;;;;;;;;;4970174;28;20549;-66
2022/08/10 13:53:50;;;;;;;2.22;1.45;;;;;;;;;;4971024;28;20238;-66
2022/08/10 13:56:18;;;;;;;1.55;1.45;;;;;;;;;;4970790;28;20728;-66
2022/08/10 13:58:48;;;;;;;2.28;1.40;;;;;;;;;;4971435;28;20594;-66
2022/08/10 14:01:18;;;;;;;1.15;1.15;;;;;;;;;;4970464;28;20797;-65
2022/08/10 14:03:46;;;;;;;1.30;1.30;;;;;;;;;;4969943;28;20253;-64
2022/08/10 14:06:15;;;;;;;1.50;1.40;;;;;;;;;;4970393;28;20644;-65
2022/08/10 14:08:47;;;;;;;1.60;1.40;;;;;;;;;;4970065;28;20214;-65
2022/08/10 14:11:17;;;;;;;1.48;1.48;;;;;;;;;;4970710;28;20296;-65
2022/08/10 14:13:46;;;;;;;1.30;1.30;;;;;;;;;;4967660;28;20210;-66
2022/08/10 14:16:14;;;;;;;1.27;1.27;;;;;;;;;;4970969;28;20206;-66
2022/08/10 14:18:43;;;;;;;3.40;1.60;;;;;;;;;;4970423;28;20241;-65
2022/08/10 14:21:10;;;;;;;1.50;1.50;;;;;;;;;;4971019;28;20214;-65
2022/08/10 14:23:40;;;;;;;5.03;1.25;;;;;;;;;;4970451;28;20532;-66
2022/08/10 14:26:08;;;;;;;2.67;1.42;;;;;;;;;;4971100;28;20672;-66
2022/08/10 14:28:39;;;;;;;2.60;1.30;;;;;;;;;;4970025;28;20758;-65
2022/08/10 14:31:09;;;;;;;2.25;1.35;;;;;;;;;;4970806;28;20214;-66
2022/08/10 14:33:36;;;;;;;1.42;1.33;;;;;;;;;;4959785;28;20296;-64
2022/08/10 14:36:04;;;;;;;2.00;1.90;;;;;;;;;;4970181;28;20206;-66
2022/08/10 14:38:33;;;;;;;1.60;1.52;;;;;;;;;;4969309;28;20584;-66
2022/08/10 14:41:02;;;;;;;3.70;1.75;;;;;;;;;;4969247;28;20249;-66
2022/08/10 14:43:33;;;;;;;1.90;1.38;;;;;;;;;;4976871;28;20662;-65
2022/08/10 14:46:05;;;;;;;1.27;1.20;;;;;;;;;;4969898;28;20217;-66
2022/08/10 14:48:34;;;;;;;2.67;1.70;;;;;;;;;;4969107;28;20571;-65
2022/08/10 14:51:02;;;;;;;3.55;1.45;;;;;;;;;;4967070;28;20222;-70
2022/08/10 14:53:32;;;;;;;1.40;1.30;;;;;;;;;;4969442;28;20581;-69
2022/08/10 14:56:01;;;;;;;1.42;1.42;;;;;;;;;;4971571;28;20226;-69
2022/08/10 14:58:29;;;;;;;2.40;1.63;;;;;;;;;;4974365;28;20683;-70
2022/08/10 15:00:56;;;;;;;1.90;1.45;;;;;;;;;;4969958;28;20206;-68
2022/08/10 15:03:27;;;;;;;1.65;1.65;;;;;;;;;;4969264;28;20229;-69